createdAt,value
2022-11-09T00:01:04.816Z,3.92
2022-11-09T00:03:33.681Z,4.68
2022-11-09T00:06:05.064Z,4.47
2022-11-09T00:08:31.594Z,4.33
2022-11-09T00:11:11.276Z,3.67
2022-11-09T00:13:43.097Z,3.65
2022-11-09T00:16:16.457Z,4.18
2022-11-09T00:18:47.484Z,4.07
2022-11-09T00:21:26.225Z,3.67
2022-11-09T00:23:57.499Z,3.83
2022-11-09T00:26:24.258Z,4.13
2022-11-09T00:28:53.483Z,4.22
2022-11-09T00:31:24.800Z,4.03
2022-11-09T00:33:53.916Z,4.10
2022-11-09T00:36:21.838Z,4.10
2022-11-09T00:38:53.153Z,4.25
2022-11-09T00:41:23.405Z,4.32
2022-11-09T00:43:50.693Z,3.88
2022-11-09T00:46:17.761Z,3.90
2022-11-09T00:48:44.858Z,4.07
2022-11-09T00:51:13.990Z,3.78
2022-11-09T00:53:48.286Z,3.85
2022-11-09T00:56:17.583Z,4.18
2022-11-09T00:58:52.516Z,3.80
2022-11-09T01:01:21.837Z,4.10
2022-11-09T01:03:48.475Z,4.38
2022-11-09T01:06:20.380Z,3.88
2022-11-09T01:08:48.085Z,4.47
2022-11-09T01:11:16.047Z,4.03
2022-11-09T01:13:42.617Z,3.75
2022-11-09T01:16:25.283Z,3.28
2022-11-09T01:18:56.104Z,4.28
2022-11-09T01:21:25.864Z,3.97
2022-11-09T01:23:54.546Z,3.70
2022-11-09T01:26:23.671Z,3.90
2022-11-09T01:28:53.162Z,3.88
2022-11-09T01:31:23.963Z,4.13
2022-11-09T01:33:51.126Z,3.70
2022-11-09T01:36:21.440Z,3.73
2022-11-09T01:38:51.066Z,4.10
2022-11-09T01:41:23.764Z,4.15
2022-11-09T01:44:10.878Z,3.85
2022-11-09T01:46:45.638Z,4.43
2022-11-09T01:49:30.476Z,3.70
2022-11-09T01:52:02.796Z,4.50
2022-11-09T01:54:34.045Z,4.65
2022-11-09T01:57:09.381Z,6.57
2022-11-09T01:59:45.261Z,23.38
2022-11-09T02:02:12.118Z,28.00
2022-11-09T02:04:47.407Z,30.95
2022-11-09T02:07:14.936Z,38.97
2022-11-09T02:09:53.569Z,46.67
2022-11-09T02:12:22.421Z,34.85
2022-11-09T02:14:52.169Z,32.97
2022-11-09T02:17:19.935Z,20.80
2022-11-09T02:19:46.659Z,10.15
2022-11-09T02:22:16.425Z,8.18
2022-11-09T02:24:43.072Z,7.13
2022-11-09T02:27:09.746Z,5.83
2022-11-09T02:29:40.694Z,5.28
2022-11-09T02:32:12.848Z,5.45
2022-11-09T02:34:39.384Z,5.20
2022-11-09T02:37:06.474Z,5.30
2022-11-09T02:39:35.384Z,4.50
2022-11-09T02:42:09.060Z,4.60
2022-11-09T02:44:41.775Z,4.68
2022-11-09T02:47:08.362Z,4.10
2022-11-09T02:49:35.093Z,4.00
2022-11-09T02:52:04.220Z,4.50
2022-11-09T02:54:33.060Z,5.75
2022-11-09T02:57:04.083Z,5.20
2022-11-09T02:59:30.586Z,4.65
2022-11-09T03:01:57.100Z,5.97
2022-11-09T03:04:23.659Z,5.37
2022-11-09T03:06:50.258Z,6.60
2022-11-09T03:09:19.168Z,6.88
2022-11-09T03:11:45.700Z,6.20
2022-11-09T03:14:12.361Z,5.97
2022-11-09T03:16:39.923Z,5.87
2022-11-09T03:19:09.209Z,5.63
2022-11-09T03:21:38.232Z,4.97
2022-11-09T03:24:07.524Z,5.03
2022-11-09T03:26:34.039Z,5.10
2022-11-09T03:29:00.561Z,4.50
2022-11-09T03:31:27.049Z,4.68
2022-11-09T03:33:53.545Z,4.40
2022-11-09T03:36:22.515Z,4.70
2022-11-09T03:38:48.998Z,4.47
2022-11-09T03:41:15.474Z,4.57
2022-11-09T03:43:41.953Z,4.60
2022-11-09T03:46:08.516Z,5.22
2022-11-09T03:48:37.270Z,4.65
2022-11-09T03:51:03.899Z,4.72
2022-11-09T03:53:32.745Z,4.40
2022-11-09T03:56:01.584Z,5.00
2022-11-09T03:58:28.083Z,4.78
2022-11-09T04:00:56.693Z,5.18
2022-11-09T04:03:25.475Z,4.57
2022-11-09T04:05:51.989Z,4.57
2022-11-09T04:08:23.032Z,4.50
2022-11-09T04:10:52.015Z,4.53
2022-11-09T04:13:18.760Z,4.13
2022-11-09T04:15:45.613Z,4.35
2022-11-09T04:18:16.693Z,5.23
2022-11-09T04:20:43.587Z,4.60
2022-11-09T04:23:12.759Z,4.70
2022-11-09T04:25:43.339Z,4.20
2022-11-09T04:28:13.012Z,4.57
2022-11-09T04:30:43.135Z,4.87
2022-11-09T04:33:12.169Z,4.47
2022-11-09T04:35:38.735Z,4.88
2022-11-09T04:38:11.280Z,4.82
2022-11-09T04:40:40.887Z,4.13
2022-11-09T04:43:11.467Z,4.43
2022-11-09T04:45:38.000Z,4.28
2022-11-09T04:48:06.684Z,4.38
2022-11-09T04:50:35.776Z,4.10
2022-11-09T04:53:20.565Z,4.82
2022-11-09T04:55:49.590Z,4.63
2022-11-09T04:58:18.858Z,4.63
2022-11-09T05:00:48.639Z,4.72
2022-11-09T05:03:15.197Z,4.25
2022-11-09T05:05:48.011Z,4.90
2022-11-09T05:08:14.930Z,4.80
2022-11-09T05:10:41.430Z,4.15
2022-11-09T05:13:12.448Z,4.97
2022-11-09T05:15:39.758Z,4.78
2022-11-09T05:18:07.300Z,5.00
2022-11-09T05:20:35.270Z,4.40
2022-11-09T05:23:20.797Z,4.72
2022-11-09T05:25:49.850Z,4.57
2022-11-09T05:28:16.384Z,4.22
2022-11-09T05:30:45.125Z,3.92
2022-11-09T05:33:14.780Z,4.00
2022-11-09T05:35:41.279Z,3.92
2022-11-09T05:38:07.795Z,4.05
2022-11-09T05:40:34.735Z,4.32
2022-11-09T05:43:03.560Z,4.10
2022-11-09T05:45:42.726Z,4.60
2022-11-09T05:48:16.350Z,4.22
2022-11-09T05:50:43.415Z,3.92
2022-11-09T05:53:13.802Z,3.55
2022-11-09T05:55:40.616Z,3.58
2022-11-09T05:58:09.950Z,3.40
2022-11-09T06:00:39.259Z,3.47
2022-11-09T06:03:10.749Z,3.35
2022-11-09T06:05:39.226Z,3.10
2022-11-09T06:08:08.090Z,3.90
2022-11-09T06:10:36.826Z,3.43
2022-11-09T06:13:03.629Z,3.15
2022-11-09T06:15:30.304Z,2.97
2022-11-09T06:18:00.018Z,2.70
2022-11-09T06:20:33.179Z,3.10
2022-11-09T06:23:03.985Z,2.93
2022-11-09T06:25:35.340Z,2.92
2022-11-09T06:28:02.105Z,2.63
2022-11-09T06:30:30.974Z,2.67
2022-11-09T06:33:03.628Z,2.50
2022-11-09T06:35:32.828Z,2.50
2022-11-09T06:38:00.278Z,2.10
2022-11-09T06:40:27.607Z,2.20
2022-11-09T06:42:57.302Z,2.20
2022-11-09T06:45:23.934Z,2.42
2022-11-09T06:47:54.735Z,2.13
2022-11-09T06:50:23.522Z,2.08
2022-11-09T06:52:55.862Z,2.78
2022-11-09T06:55:22.375Z,1.98
2022-11-09T06:57:48.872Z,2.10
2022-11-09T07:00:18.869Z,2.07
2022-11-09T07:02:50.336Z,1.85
2022-11-09T07:05:19.126Z,2.55
2022-11-09T07:07:50.456Z,2.00
2022-11-09T07:10:17.415Z,2.42
2022-11-09T07:12:44.085Z,2.20
2022-11-09T07:15:13.413Z,2.35
2022-11-09T07:17:41.277Z,2.45
2022-11-09T07:20:09.991Z,2.35
2022-11-09T07:22:42.255Z,2.42
2022-11-09T07:25:14.087Z,2.53
2022-11-09T07:27:40.714Z,2.63
2022-11-09T07:30:13.570Z,2.55
2022-11-09T07:35:30.532Z,2.30
2022-11-09T07:38:02.749Z,2.40
2022-11-09T07:40:30.368Z,2.70
2022-11-09T07:43:00.980Z,3.88
2022-11-09T07:45:31.073Z,3.22
2022-11-09T07:47:59.672Z,2.78
2022-11-09T07:50:29.938Z,2.40
2022-11-09T07:52:57.800Z,2.00
2022-11-09T07:55:27.416Z,2.42
2022-11-09T07:58:04.458Z,2.40
2022-11-09T08:00:36.402Z,2.58
2022-11-09T08:03:03.822Z,2.13
2022-11-09T08:05:30.591Z,2.13
2022-11-09T08:07:58.970Z,2.05
2022-11-09T08:10:27.323Z,2.65
2022-11-09T08:12:58.882Z,3.08
2022-11-09T08:15:28.709Z,2.93
2022-11-09T08:18:00.315Z,2.63
2022-11-09T08:20:32.369Z,2.97
2022-11-09T08:23:03.708Z,2.92
2022-11-09T08:25:37.684Z,3.53
2022-11-09T08:28:04.404Z,3.20
2022-11-09T08:30:32.029Z,3.13
2022-11-09T08:33:02.826Z,3.15
2022-11-09T08:35:30.242Z,3.25
2022-11-09T08:38:02.502Z,3.20
2022-11-09T08:40:30.084Z,3.23
2022-11-09T08:43:02.240Z,2.85
2022-11-09T08:45:32.164Z,3.17
2022-11-09T08:48:01.778Z,3.05
2022-11-09T08:50:29.756Z,2.80
2022-11-09T08:52:56.680Z,3.40
2022-11-09T08:55:27.311Z,3.90
2022-11-09T08:57:57.509Z,3.78
2022-11-09T09:00:27.161Z,3.20
2022-11-09T09:02:55.951Z,2.60
2022-11-09T09:05:25.044Z,2.70
2022-11-09T09:07:53.897Z,2.95
2022-11-09T09:10:22.800Z,2.80
2022-11-09T09:12:49.306Z,2.25
2022-11-09T09:15:23.522Z,1.95
2022-11-09T09:17:50.698Z,1.90
2022-11-09T09:20:20.013Z,2.20
2022-11-09T09:22:46.827Z,1.92
2022-11-09T09:25:15.551Z,2.05
2022-11-09T09:27:44.115Z,2.50
2022-11-09T09:30:11.320Z,1.90
2022-11-09T09:32:37.852Z,2.10
2022-11-09T09:35:04.731Z,2.38
2022-11-09T09:37:33.588Z,1.88
2022-11-09T09:40:00.102Z,1.75
2022-11-09T09:42:36.324Z,3.10
2022-11-09T09:45:14.688Z,2.90
2022-11-09T09:48:19.476Z,2.83
2022-11-09T09:50:53.835Z,2.20
2022-11-09T09:53:37.400Z,3.58
2022-11-09T09:56:13.741Z,3.40
2022-11-09T09:58:49.231Z,3.13
2022-11-09T10:01:20.765Z,2.80
2022-11-09T10:03:51.972Z,3.08
2022-11-09T10:06:37.848Z,3.55
2022-11-09T10:09:07.060Z,3.33
2022-11-09T10:12:04.990Z,3.92
2022-11-09T10:14:53.371Z,3.70
2022-11-09T10:17:25.058Z,3.65
2022-11-09T10:20:35.094Z,3.63
2022-11-09T10:23:35.302Z,4.10
2022-11-09T10:26:16.612Z,3.33
2022-11-09T10:29:14.547Z,3.45
2022-11-09T10:31:41.295Z,3.90
2022-11-09T10:34:40.537Z,3.80
2022-11-09T10:37:38.786Z,3.23
2022-11-09T10:40:08.236Z,3.92
2022-11-09T10:42:38.528Z,4.07
2022-11-09T10:45:26.936Z,3.30
2022-11-09T10:47:53.457Z,3.22
2022-11-09T10:50:39.197Z,3.90
2022-11-09T10:53:10.484Z,3.78
2022-11-09T10:55:49.436Z,3.72
2022-11-09T10:58:25.926Z,3.45
2022-11-09T11:01:06.108Z,3.85
2022-11-09T11:03:38.854Z,3.80
2022-11-09T11:06:25.573Z,4.25
2022-11-09T11:08:59.037Z,4.47
2022-11-09T11:11:35.966Z,4.47
2022-11-09T11:14:23.291Z,4.22
2022-11-09T11:16:54.281Z,4.57
2022-11-09T11:19:32.487Z,5.40
2022-11-09T11:22:27.391Z,5.82
2022-11-09T11:25:01.270Z,6.15
2022-11-09T11:27:53.172Z,5.30
2022-11-09T11:30:28.428Z,4.10
2022-11-09T11:32:58.679Z,4.15
2022-11-09T11:35:34.946Z,5.13
2022-11-09T11:38:22.688Z,5.10
2022-11-09T11:41:01.317Z,4.45
2022-11-09T11:43:40.835Z,4.17
2022-11-09T11:46:21.626Z,4.40
2022-11-09T11:49:12.708Z,4.40
2022-11-09T11:52:16.116Z,4.97
2022-11-09T11:54:49.223Z,4.68
2022-11-09T11:57:33.038Z,22.50
2022-11-09T12:00:18.105Z,7.15
2022-11-09T12:03:07.192Z,4.95
2022-11-09T12:05:39.723Z,4.35
2022-11-09T12:08:31.613Z,5.20
2022-11-09T12:11:23.209Z,5.10
2022-11-09T12:14:01.954Z,7.40
2022-11-09T12:16:40.474Z,5.97
2022-11-09T12:19:10.042Z,13.55
2022-11-09T12:21:55.684Z,6.32
2022-11-09T12:24:24.441Z,6.67
2022-11-09T12:27:31.739Z,6.60
2022-11-09T12:30:18.830Z,5.30
2022-11-09T12:33:03.683Z,5.47
2022-11-09T12:36:01.411Z,4.97
2022-11-09T12:38:39.561Z,5.87
2022-11-09T12:41:30.253Z,5.45
2022-11-09T12:44:23.348Z,5.05
2022-11-09T12:46:59.852Z,4.68
2022-11-09T12:49:39.907Z,4.40
2022-11-09T12:52:08.621Z,4.63
2022-11-09T12:54:37.069Z,5.15
2022-11-09T12:57:11.716Z,4.35
2022-11-09T12:59:54.970Z,4.55
2022-11-09T13:02:31.557Z,4.38
2022-11-09T13:05:01.344Z,4.70
2022-11-09T13:07:49.570Z,4.47
2022-11-09T13:10:38.630Z,4.80
2022-11-09T13:13:08.234Z,4.75
2022-11-09T13:15:35.881Z,4.75
2022-11-09T13:18:05.560Z,4.50
2022-11-09T13:20:54.029Z,5.45
2022-11-09T13:26:32.838Z,4.65
2022-11-09T13:29:14.705Z,4.50
2022-11-09T13:32:12.553Z,4.70
2022-11-09T13:34:40.130Z,5.05
2022-11-09T13:37:44.937Z,4.75
2022-11-09T13:40:35.961Z,5.60
2022-11-09T13:43:12.564Z,6.10
2022-11-09T13:46:01.506Z,5.00
2022-11-09T13:48:47.497Z,5.50
2022-11-09T13:51:38.210Z,5.57
2022-11-09T13:54:43.985Z,5.10
2022-11-09T13:57:11.060Z,5.32
2022-11-09T13:59:48.119Z,4.87
2022-11-09T14:02:26.081Z,5.40
2022-11-09T14:04:54.836Z,5.03
2022-11-09T14:07:30.845Z,5.10
2022-11-09T14:10:03.225Z,5.63
2022-11-09T14:12:57.786Z,4.73
2022-11-09T14:15:44.739Z,4.30
2022-11-09T14:18:23.670Z,4.22
2022-11-09T14:21:10.586Z,3.83
2022-11-09T14:23:41.637Z,4.18
2022-11-09T14:26:09.727Z,4.70
2022-11-09T14:28:38.792Z,4.45
2022-11-09T14:31:06.105Z,4.53
2022-11-09T14:33:36.470Z,4.10
2022-11-09T14:36:04.852Z,3.92
2022-11-09T14:38:34.792Z,4.20
2022-11-09T14:41:04.671Z,3.88
2022-11-09T14:43:44.723Z,4.18
2022-11-09T14:46:21.058Z,3.70
2022-11-09T14:48:55.558Z,4.13
2022-11-09T14:51:33.498Z,4.23
2022-11-09T14:54:01.387Z,4.45
2022-11-09T14:56:33.923Z,4.32
2022-11-09T14:59:04.078Z,4.88
2022-11-09T15:01:30.637Z,4.95
2022-11-09T15:04:20.264Z,5.27
2022-11-09T15:06:52.064Z,4.65
2022-11-09T15:09:21.917Z,4.97
2022-11-09T15:11:51.921Z,4.68
2022-11-09T15:14:41.417Z,5.10
2022-11-09T15:17:25.742Z,4.97
2022-11-09T15:20:03.572Z,4.68
2022-11-09T15:22:49.227Z,5.57
2022-11-09T15:25:24.113Z,5.53
2022-11-09T15:27:58.692Z,4.65
2022-11-09T15:30:49.839Z,5.47
2022-11-09T15:33:19.559Z,6.60
2022-11-09T15:35:51.450Z,7.25
2022-11-09T15:38:44.265Z,5.50
2022-11-09T15:41:17.083Z,6.00
2022-11-09T15:43:44.150Z,5.47
2022-11-09T15:46:20.298Z,4.78
2022-11-09T15:48:47.369Z,4.40
2022-11-09T15:51:19.137Z,4.55
2022-11-09T15:53:45.876Z,4.28
2022-11-09T15:56:23.892Z,4.30
2022-11-09T15:58:52.499Z,3.97
2022-11-09T16:01:19.141Z,4.00
2022-11-09T16:03:45.679Z,4.38
2022-11-09T16:06:19.120Z,3.35
2022-11-09T16:08:50.230Z,3.50
2022-11-09T16:11:19.366Z,3.58
2022-11-09T16:13:45.861Z,3.60
2022-11-09T16:16:17.622Z,3.67
2022-11-09T16:18:44.260Z,3.33
2022-11-09T16:21:16.299Z,3.70
2022-11-09T16:23:45.290Z,3.30
2022-11-09T16:26:14.920Z,2.95
2022-11-09T16:28:44.638Z,3.40
2022-11-09T16:31:14.992Z,3.45
2022-11-09T16:33:41.799Z,3.17
2022-11-09T16:36:13.220Z,3.42
2022-11-09T16:38:43.211Z,2.55
2022-11-09T16:41:11.045Z,3.00
2022-11-09T16:43:37.993Z,3.30
2022-11-09T16:46:04.985Z,3.13
2022-11-09T16:48:35.059Z,4.00
2022-11-09T16:51:02.185Z,4.72
2022-11-09T16:53:31.132Z,4.25
2022-11-09T16:55:57.638Z,3.97
2022-11-09T16:58:24.320Z,5.07
2022-11-09T17:03:40.843Z,5.50
2022-11-09T17:06:11.022Z,6.22
2022-11-09T17:08:41.563Z,5.97
2022-11-09T17:11:12.918Z,6.07
2022-11-09T17:13:42.433Z,5.72
2022-11-09T17:16:11.392Z,5.03
2022-11-09T17:18:38.682Z,4.45
2022-11-09T17:21:16.704Z,3.95
2022-11-09T17:23:46.419Z,4.17
2022-11-09T17:26:15.215Z,4.25
2022-11-09T17:28:44.006Z,4.90
2022-11-09T17:31:18.093Z,5.40
2022-11-09T17:33:44.811Z,4.45
2022-11-09T17:36:16.039Z,3.73
2022-11-09T17:38:45.511Z,3.90
2022-11-09T17:41:18.403Z,3.58
2022-11-09T17:43:47.478Z,3.78
2022-11-09T17:46:20.354Z,3.85
2022-11-09T17:48:48.647Z,3.40
2022-11-09T17:51:17.800Z,3.33
2022-11-09T17:53:44.372Z,3.35
2022-11-09T17:56:11.931Z,3.05
2022-11-09T17:58:43.149Z,4.18
2022-11-09T18:01:19.931Z,3.60
2022-11-09T18:03:49.042Z,3.78
2022-11-09T18:06:25.221Z,4.13
2022-11-09T18:09:25.888Z,4.75
2022-11-09T18:11:46.162Z,5.80
2022-11-09T18:14:18.251Z,5.27
2022-11-09T18:16:45.312Z,5.47
2022-11-09T18:19:14.143Z,4.60
2022-11-09T18:21:41.429Z,3.92
2022-11-09T18:24:10.401Z,4.55
2022-11-09T18:26:36.958Z,4.33
2022-11-09T18:29:03.506Z,4.47
2022-11-09T18:31:34.576Z,4.78
2022-11-09T18:34:03.311Z,3.80
2022-11-09T18:36:29.872Z,4.07
2022-11-09T18:38:58.932Z,4.47
2022-11-09T18:41:27.776Z,6.32
2022-11-09T18:43:54.521Z,5.80
2022-11-09T18:46:24.535Z,4.43
2022-11-09T18:48:54.763Z,5.00
2022-11-09T18:51:21.310Z,4.60
2022-11-09T18:53:48.903Z,6.60
2022-11-09T18:56:21.513Z,7.47
2022-11-09T18:58:49.841Z,5.00
2022-11-09T19:01:19.444Z,7.22
2022-11-09T19:03:46.433Z,8.63
2022-11-09T19:06:15.634Z,5.13
2022-11-09T19:09:01.024Z,5.70
2022-11-09T19:11:28.090Z,4.70
2022-11-09T19:13:54.795Z,4.80
2022-11-09T19:16:24.744Z,4.80
2022-11-09T19:18:55.304Z,4.50
2022-11-09T19:21:24.865Z,4.80
2022-11-09T19:23:54.545Z,5.10
2022-11-09T19:26:22.242Z,4.93
2022-11-09T19:28:48.793Z,4.43
2022-11-09T19:31:22.513Z,5.03
2022-11-09T19:33:49.077Z,4.15
2022-11-09T19:36:33.801Z,4.30
2022-11-09T19:39:01.294Z,5.63
2022-11-09T19:41:27.873Z,5.07
2022-11-09T19:43:58.787Z,5.63
2022-11-09T19:46:33.710Z,4.72
2022-11-09T19:49:03.795Z,4.60
2022-11-09T19:51:33.049Z,4.47
2022-11-09T19:54:04.032Z,5.23
2022-11-09T19:56:32.083Z,4.90
2022-11-09T19:59:01.211Z,5.18
2022-11-09T20:01:28.146Z,4.57
2022-11-09T20:03:58.839Z,4.30
2022-11-09T20:06:25.895Z,5.47
2022-11-09T20:08:53.831Z,4.80
2022-11-09T20:11:41.066Z,4.38
2022-11-09T20:14:08.735Z,4.25
2022-11-09T20:16:36.563Z,4.65
2022-11-09T20:19:04.350Z,4.00
2022-11-09T20:21:34.135Z,4.70
2022-11-09T20:24:03.320Z,4.43
2022-11-09T20:26:29.903Z,4.78
2022-11-09T20:28:58.698Z,4.32
2022-11-09T20:31:29.964Z,4.17
2022-11-09T20:33:56.945Z,4.10
2022-11-09T20:36:23.503Z,4.00
2022-11-09T20:38:50.066Z,4.05
2022-11-09T20:41:18.011Z,4.47
2022-11-09T20:43:49.249Z,4.13
2022-11-09T20:46:18.308Z,4.25
2022-11-09T20:48:55.163Z,4.22
2022-11-09T20:51:23.216Z,3.88
2022-11-09T20:53:50.495Z,4.30
2022-11-09T20:56:17.805Z,3.60
2022-11-09T20:58:47.252Z,4.03
2022-11-09T21:01:17.398Z,4.10
2022-11-09T21:03:46.932Z,3.78
2022-11-09T21:06:14.947Z,4.40
2022-11-09T21:08:53.960Z,3.77
2022-11-09T21:11:23.631Z,3.78
2022-11-09T21:13:51.944Z,4.60
2022-11-09T21:16:20.152Z,4.00
2022-11-09T21:18:46.785Z,4.15
2022-11-09T21:21:21.331Z,4.63
2022-11-09T21:24:06.703Z,4.65
2022-11-09T21:26:54.339Z,4.70
2022-11-09T21:29:42.385Z,4.60
2022-11-09T21:32:11.508Z,5.32
2022-11-09T21:34:38.481Z,4.77
2022-11-09T21:37:05.828Z,5.07
2022-11-09T21:39:32.825Z,5.00
2022-11-09T21:41:59.550Z,5.15
2022-11-09T21:44:30.849Z,5.65
2022-11-09T21:47:00.601Z,5.37
2022-11-09T21:49:29.698Z,5.40
2022-11-09T21:51:56.515Z,5.88
2022-11-09T21:54:24.129Z,6.10
2022-11-09T21:56:51.625Z,6.35
2022-11-09T21:59:18.393Z,5.53
2022-11-09T22:01:45.605Z,5.70
2022-11-09T22:04:14.832Z,6.45
2022-11-09T22:06:43.418Z,5.60
2022-11-09T22:09:17.883Z,5.80
2022-11-09T22:12:05.614Z,7.03
2022-11-09T22:14:50.324Z,6.97
2022-11-09T22:17:19.070Z,6.35
2022-11-09T22:20:06.587Z,6.45
2022-11-09T22:22:34.337Z,6.40
2022-11-09T22:25:00.885Z,6.53
2022-11-09T22:27:30.353Z,7.20
2022-11-09T22:29:56.897Z,7.05
2022-11-09T22:32:25.932Z,7.13
2022-11-09T22:34:52.453Z,7.68
2022-11-09T22:37:21.510Z,7.57
2022-11-09T22:39:50.245Z,7.47
2022-11-09T22:42:16.781Z,7.72
2022-11-09T22:44:43.379Z,7.43
2022-11-09T22:47:13.403Z,7.05
2022-11-09T22:49:42.412Z,8.70
2022-11-09T22:52:09.699Z,7.43
2022-11-09T22:54:36.213Z,7.93
2022-11-09T22:57:03.057Z,7.93
2022-11-09T22:59:34.181Z,7.30
2022-11-09T23:02:00.729Z,7.43
2022-11-09T23:04:32.334Z,7.72
2022-11-09T23:06:58.877Z,8.70
2022-11-09T23:09:27.941Z,8.25
2022-11-09T23:11:56.720Z,8.25
2022-11-09T23:14:43.192Z,8.63
2022-11-09T23:17:29.696Z,8.20
2022-11-09T23:19:56.241Z,7.72
2022-11-09T23:22:22.763Z,8.32
2022-11-09T23:25:07.718Z,8.05
2022-11-09T23:27:34.226Z,7.90
2022-11-09T23:30:00.743Z,7.60
2022-11-09T23:32:27.229Z,7.95
2022-11-09T23:34:56.767Z,7.75
2022-11-09T23:37:25.507Z,8.60
2022-11-09T23:39:52.023Z,7.87
2022-11-09T23:42:20.772Z,7.97
2022-11-09T23:44:52.056Z,8.60
2022-11-09T23:47:20.792Z,8.70
2022-11-09T23:49:49.539Z,9.00
2022-11-09T23:52:18.452Z,9.07
2022-11-09T23:54:47.287Z,8.48
2022-11-09T23:57:18.691Z,9.45
2022-11-09T23:59:45.174Z,8.10
